createdAt,value
2023-03-15T00:02:17.222Z,2.25
2023-03-15T00:04:54.711Z,2.58
2023-03-15T00:07:28.023Z,2.27
2023-03-15T00:10:01.448Z,2.70
2023-03-15T00:12:35.063Z,2.33
2023-03-15T00:15:11.409Z,2.25
2023-03-15T00:17:45.312Z,3.02
2023-03-15T00:20:20.051Z,2.52
2023-03-15T00:22:53.368Z,3.15
2023-03-15T00:25:26.619Z,1.70
2023-03-15T00:27:59.906Z,3.35
2023-03-15T00:30:33.665Z,3.17
2023-03-15T00:33:09.313Z,3.10
2023-03-15T00:35:43.784Z,2.80
2023-03-15T00:38:17.138Z,3.02
2023-03-15T00:40:51.036Z,1.77
2023-03-15T00:43:24.337Z,1.75
2023-03-15T00:45:59.290Z,2.37
2023-03-15T00:48:38.413Z,3.47
2023-03-15T00:51:14.449Z,3.35
2023-03-15T00:53:50.041Z,2.20
2023-03-15T00:56:55.945Z,2.85
2023-03-15T01:00:08.347Z,2.00
2023-03-15T01:02:42.336Z,3.67
2023-03-15T01:05:16.373Z,2.80
2023-03-15T01:07:50.052Z,2.02
2023-03-15T01:10:23.593Z,3.05
2023-03-15T01:12:56.862Z,2.83
2023-03-15T01:15:30.391Z,3.45
2023-03-15T01:18:04.713Z,2.72
2023-03-15T01:20:38.024Z,3.58
2023-03-15T01:23:11.924Z,2.47
2023-03-15T01:25:45.666Z,2.47
2023-03-15T01:28:19.362Z,3.35
2023-03-15T01:30:54.096Z,2.52
2023-03-15T01:33:27.912Z,2.80
2023-03-15T01:36:06.849Z,3.08
2023-03-15T01:38:41.718Z,3.33
2023-03-15T01:41:16.801Z,2.85
2023-03-15T01:43:50.976Z,3.17
2023-03-15T01:46:33.567Z,2.80
2023-03-15T01:49:12.691Z,3.58
2023-03-15T01:51:51.305Z,2.85
2023-03-15T01:54:31.677Z,3.08
2023-03-15T01:57:08.683Z,3.22
2023-03-15T01:59:45.327Z,3.35
2023-03-15T02:02:19.218Z,3.02
2023-03-15T02:04:56.107Z,2.45
2023-03-15T02:07:33.996Z,2.55
2023-03-15T02:10:12.784Z,2.85
2023-03-15T02:12:49.748Z,2.80
2023-03-15T02:15:23.224Z,4.10
2023-03-15T02:17:56.626Z,3.60
2023-03-15T02:20:36.063Z,3.05
2023-03-15T02:23:13.211Z,3.37
2023-03-15T02:25:50.233Z,2.47
2023-03-15T02:28:25.734Z,3.00
2023-03-15T02:30:59.321Z,2.80
2023-03-15T02:33:37.110Z,3.62
2023-03-15T02:36:13.254Z,2.77
2023-03-15T02:38:46.642Z,2.40
2023-03-15T02:41:23.297Z,3.67
2023-03-15T02:43:59.509Z,2.67
2023-03-15T02:46:33.433Z,3.37
2023-03-15T02:49:09.264Z,3.15
2023-03-15T02:51:42.600Z,3.45
2023-03-15T02:54:15.977Z,3.65
2023-03-15T02:56:49.571Z,3.37
2023-03-15T02:59:23.030Z,3.30
2023-03-15T03:01:56.331Z,3.77
2023-03-15T03:04:30.060Z,2.77
2023-03-15T03:07:03.459Z,3.58
2023-03-15T03:09:38.342Z,2.25
2023-03-15T03:12:13.020Z,3.70
2023-03-15T03:14:47.913Z,3.62
2023-03-15T03:20:08.192Z,3.30
2023-03-15T03:22:45.330Z,3.35
2023-03-15T03:25:18.718Z,3.17
2023-03-15T03:27:54.283Z,3.58
2023-03-15T03:30:27.597Z,4.37
2023-03-15T03:33:01.053Z,2.80
2023-03-15T03:35:35.395Z,3.37
2023-03-15T03:38:09.221Z,2.95
2023-03-15T03:40:44.231Z,3.52
2023-03-15T03:43:17.581Z,2.70
2023-03-15T03:45:52.741Z,5.22
2023-03-15T03:48:26.684Z,3.52
2023-03-15T03:51:00.797Z,3.98
2023-03-15T03:53:34.026Z,3.77
2023-03-15T03:56:08.865Z,4.03
2023-03-15T03:58:42.302Z,3.92
2023-03-15T04:01:25.959Z,3.52
2023-03-15T04:04:00.386Z,3.70
2023-03-15T04:06:34.276Z,3.95
2023-03-15T04:09:08.207Z,3.58
2023-03-15T04:11:44.817Z,2.87
2023-03-15T04:14:20.607Z,3.52
2023-03-15T04:17:06.831Z,3.90
2023-03-15T04:19:40.340Z,3.50
2023-03-15T04:22:15.568Z,3.70
2023-03-15T04:25:02.911Z,3.42
2023-03-15T04:27:40.423Z,4.75
2023-03-15T04:30:32.683Z,3.17
2023-03-15T04:33:13.707Z,4.35
2023-03-15T04:36:05.396Z,5.20
2023-03-15T04:38:44.673Z,3.20
2023-03-15T04:44:16.382Z,4.58
2023-03-15T04:49:32.017Z,3.67
2023-03-15T04:52:07.755Z,4.78
2023-03-15T04:57:30.661Z,4.42
2023-03-15T05:00:13.179Z,3.67
2023-03-15T05:02:52.659Z,4.20
2023-03-15T05:05:30.499Z,3.72
2023-03-15T05:08:11.366Z,3.95
2023-03-15T05:10:48.999Z,3.60
2023-03-15T05:13:30.722Z,4.10
2023-03-15T05:16:09.866Z,4.17
2023-03-15T05:21:43.267Z,2.83
2023-03-15T05:24:29.856Z,4.03
2023-03-15T05:27:21.717Z,3.20
2023-03-15T05:32:47.360Z,3.35
2023-03-15T05:38:44.553Z,3.77
2023-03-15T05:41:27.845Z,4.25
2023-03-15T05:44:02.840Z,4.97
2023-03-15T05:46:53.386Z,3.62
2023-03-15T05:49:37.509Z,3.35
2023-03-15T05:52:28.250Z,4.08
2023-03-15T05:55:15.173Z,3.08
2023-03-15T05:57:51.820Z,3.33
2023-03-15T06:00:39.505Z,3.35
2023-03-15T06:03:25.573Z,3.80
2023-03-15T06:06:40.904Z,3.87
2023-03-15T06:09:15.746Z,3.58
2023-03-15T06:11:51.204Z,4.22
2023-03-15T06:14:24.661Z,3.37
2023-03-15T06:16:59.649Z,5.08
2023-03-15T06:19:36.805Z,4.15
2023-03-15T06:22:09.929Z,3.45
2023-03-15T06:24:45.057Z,3.58
2023-03-15T06:27:22.385Z,3.75
2023-03-15T06:30:00.831Z,4.25
2023-03-15T06:32:40.496Z,3.45
2023-03-15T06:35:13.755Z,3.95
2023-03-15T06:37:47.482Z,3.58
2023-03-15T06:40:21.589Z,3.17
2023-03-15T06:42:55.212Z,3.58
2023-03-15T06:45:28.542Z,4.47
2023-03-15T06:48:03.431Z,4.78
2023-03-15T06:50:46.413Z,3.70
2023-03-15T06:53:12.046Z,5.30
2023-03-15T06:55:45.722Z,4.35
2023-03-15T06:58:19.904Z,4.65
2023-03-15T07:00:53.330Z,3.45
2023-03-15T07:03:26.635Z,4.03
2023-03-15T07:06:00.771Z,3.65
2023-03-15T07:08:34.065Z,3.67
2023-03-15T07:11:07.782Z,3.80
2023-03-15T07:13:41.141Z,4.85
2023-03-15T07:16:14.512Z,3.62
2023-03-15T07:18:48.166Z,4.42
2023-03-15T07:21:21.309Z,4.42
2023-03-15T07:23:54.648Z,3.85
2023-03-15T07:26:27.787Z,3.70
2023-03-15T07:29:01.111Z,4.45
2023-03-15T07:31:34.423Z,4.17
2023-03-15T07:34:07.665Z,4.15
2023-03-15T07:36:40.894Z,4.50
2023-03-15T07:39:15.512Z,4.60
2023-03-15T07:41:49.006Z,4.10
2023-03-15T07:44:24.238Z,4.75
2023-03-15T07:46:57.469Z,5.08
2023-03-15T07:49:32.048Z,5.75
2023-03-15T07:52:05.628Z,5.08
2023-03-15T07:54:39.074Z,4.20
2023-03-15T07:57:13.061Z,4.28
2023-03-15T07:59:46.404Z,4.80
2023-03-15T08:02:20.176Z,4.42
2023-03-15T08:04:53.468Z,4.33
2023-03-15T08:07:26.890Z,4.47
2023-03-15T08:10:02.785Z,5.65
2023-03-15T08:12:46.705Z,7.47
2023-03-15T08:15:20.844Z,4.92
2023-03-15T08:17:55.026Z,5.53
2023-03-15T08:20:29.820Z,5.00
2023-03-15T08:23:03.624Z,5.53
2023-03-15T08:25:38.814Z,3.40
2023-03-15T08:28:12.310Z,5.58
2023-03-15T08:30:45.775Z,5.45
2023-03-15T08:33:19.121Z,4.80
2023-03-15T08:35:56.502Z,5.53
2023-03-15T08:38:29.936Z,5.12
2023-03-15T08:41:03.753Z,4.83
2023-03-15T08:43:36.967Z,4.85
2023-03-15T08:46:10.265Z,6.03
2023-03-15T08:48:43.363Z,4.75
2023-03-15T08:51:16.700Z,4.15
2023-03-15T08:53:50.376Z,4.55
2023-03-15T08:56:23.602Z,5.40
2023-03-15T08:58:57.000Z,5.53
2023-03-15T09:01:31.153Z,5.20
2023-03-15T09:04:04.555Z,4.05
2023-03-15T09:06:39.266Z,5.78
2023-03-15T09:09:14.455Z,6.60
2023-03-15T09:11:51.048Z,5.53
2023-03-15T09:14:24.381Z,5.53
2023-03-15T09:16:57.638Z,5.95
2023-03-15T09:19:32.483Z,5.95
2023-03-15T09:22:16.824Z,4.80
2023-03-15T09:24:41.127Z,5.10
2023-03-15T09:27:14.584Z,6.00
2023-03-15T09:29:47.799Z,5.67
2023-03-15T09:32:21.816Z,5.62
2023-03-15T09:34:55.032Z,6.87
2023-03-15T09:37:29.052Z,4.87
2023-03-15T09:40:02.775Z,6.85
2023-03-15T09:42:40.763Z,5.97
2023-03-15T09:45:17.668Z,6.90
2023-03-15T09:47:54.075Z,7.10
2023-03-15T09:50:30.668Z,6.70
2023-03-15T09:53:07.133Z,6.45
2023-03-15T09:55:46.039Z,5.78
2023-03-15T09:58:22.585Z,6.85
2023-03-15T10:00:58.865Z,5.92
2023-03-15T10:03:36.958Z,5.97
2023-03-15T10:06:14.842Z,6.58
2023-03-15T10:08:48.958Z,6.47
2023-03-15T10:11:25.513Z,6.15
2023-03-15T10:14:11.747Z,5.95
2023-03-15T10:16:47.152Z,7.20
2023-03-15T10:19:29.584Z,7.30
2023-03-15T10:22:06.801Z,7.75
2023-03-15T10:24:43.205Z,5.37
2023-03-15T10:27:23.276Z,6.97
2023-03-15T10:30:00.084Z,6.35
2023-03-15T10:32:38.456Z,6.53
2023-03-15T10:35:17.221Z,7.42
2023-03-15T10:37:53.440Z,6.00
2023-03-15T10:40:44.605Z,7.35
2023-03-15T10:43:23.411Z,7.10
2023-03-15T10:46:03.262Z,7.83
2023-03-15T10:48:39.202Z,6.58
2023-03-15T10:54:04.356Z,6.50
2023-03-15T10:56:41.917Z,7.28
2023-03-15T10:59:21.202Z,7.35
2023-03-15T11:01:56.199Z,8.33
2023-03-15T11:04:33.116Z,6.90
2023-03-15T11:07:08.281Z,6.78
2023-03-15T11:09:43.128Z,6.65
2023-03-15T11:12:25.093Z,7.58
2023-03-15T11:15:03.323Z,7.85
2023-03-15T11:17:39.657Z,7.22
2023-03-15T11:20:23.447Z,5.58
2023-03-15T11:22:57.479Z,7.03
2023-03-15T11:25:33.325Z,6.15
2023-03-15T11:28:06.848Z,7.92
2023-03-15T11:30:43.040Z,7.62
2023-03-15T11:33:25.064Z,6.70
2023-03-15T11:36:01.410Z,6.05
2023-03-15T11:38:38.896Z,7.08
2023-03-15T11:41:18.617Z,7.20
2023-03-15T11:43:59.352Z,6.12
2023-03-15T11:46:36.714Z,6.25
2023-03-15T11:49:16.426Z,6.28
2023-03-15T11:51:49.714Z,6.55
2023-03-15T11:54:24.495Z,5.80
2023-03-15T11:56:59.226Z,5.75
2023-03-15T11:59:34.451Z,6.12
2023-03-15T12:02:31.440Z,6.35
2023-03-15T12:05:17.636Z,6.25
2023-03-15T12:08:02.613Z,7.58
2023-03-15T12:10:51.048Z,7.12
2023-03-15T12:13:28.917Z,7.40
2023-03-15T12:18:37.484Z,6.58
2023-03-15T12:21:23.620Z,6.08
2023-03-15T12:24:05.371Z,7.03
2023-03-15T12:26:48.581Z,5.78
2023-03-15T12:29:26.086Z,6.35
2023-03-15T12:32:03.151Z,6.80
2023-03-15T12:34:49.410Z,6.92
2023-03-15T12:37:25.972Z,6.60
2023-03-15T12:40:05.809Z,7.28
2023-03-15T12:43:16.277Z,7.72
2023-03-15T12:45:50.248Z,7.70
2023-03-15T12:48:33.540Z,7.10
2023-03-15T12:51:16.198Z,7.37
2023-03-15T12:53:53.836Z,7.95
2023-03-15T12:56:33.340Z,4.90
2023-03-15T12:59:14.280Z,6.00
2023-03-15T13:01:51.321Z,6.30
2023-03-15T13:04:25.548Z,6.13
2023-03-15T13:07:18.621Z,5.90
2023-03-15T13:10:40.387Z,8.60
2023-03-15T13:13:23.683Z,6.40
2023-03-15T13:16:13.146Z,7.20
2023-03-15T13:18:53.441Z,5.45
2023-03-15T13:21:32.242Z,6.03
2023-03-15T13:24:09.460Z,7.78
2023-03-15T13:26:52.317Z,7.33
2023-03-15T13:29:30.582Z,6.72
2023-03-15T13:32:07.697Z,6.95
2023-03-15T13:34:41.434Z,5.53
2023-03-15T13:37:19.219Z,5.70
2023-03-15T13:40:01.094Z,7.00
2023-03-15T13:42:34.550Z,6.37
2023-03-15T13:45:17.164Z,7.75
2023-03-15T13:47:53.501Z,5.85
2023-03-15T13:50:27.096Z,6.92
2023-03-15T13:53:00.442Z,7.62
2023-03-15T13:55:36.237Z,5.58
2023-03-15T13:58:11.038Z,7.95
2023-03-15T14:00:44.534Z,7.40
2023-03-15T14:03:21.823Z,6.47
2023-03-15T14:05:57.395Z,6.87
2023-03-15T14:08:33.864Z,6.80
2023-03-15T14:11:17.446Z,6.83
2023-03-15T14:14:02.818Z,5.35
2023-03-15T14:16:57.203Z,7.25
2023-03-15T14:19:21.646Z,7.83
2023-03-15T14:21:57.659Z,5.53
2023-03-15T14:24:34.367Z,7.72
2023-03-15T14:27:11.262Z,6.35
2023-03-15T14:29:49.200Z,8.03
2023-03-15T14:35:06.038Z,7.75
2023-03-15T14:37:44.420Z,7.33
2023-03-15T14:40:23.527Z,6.12
2023-03-15T14:42:59.544Z,7.33
2023-03-15T14:45:34.426Z,8.13
2023-03-15T14:48:11.253Z,6.55
2023-03-15T14:50:46.809Z,7.37
2023-03-15T14:53:23.268Z,7.00
2023-03-15T14:55:56.609Z,8.10
2023-03-15T14:58:29.986Z,7.37
2023-03-15T15:01:04.246Z,6.40
2023-03-15T15:03:41.314Z,7.28
2023-03-15T15:06:16.662Z,7.05
2023-03-15T15:08:52.820Z,7.37
2023-03-15T15:11:26.176Z,4.40
2023-03-15T15:13:59.896Z,7.00
2023-03-15T15:16:33.387Z,6.75
2023-03-15T15:19:07.019Z,5.10
2023-03-15T15:21:41.106Z,7.42
2023-03-15T15:24:17.906Z,6.20
2023-03-15T15:26:53.204Z,6.37
2023-03-15T15:29:26.547Z,7.72
2023-03-15T15:32:02.486Z,5.50
2023-03-15T15:34:37.386Z,6.28
2023-03-15T15:37:16.314Z,6.92
2023-03-15T15:39:50.448Z,5.72
2023-03-15T15:42:23.586Z,5.67
2023-03-15T15:44:56.764Z,5.62
2023-03-15T15:47:30.625Z,5.10
2023-03-15T15:50:04.052Z,7.25
2023-03-15T15:52:40.805Z,7.55
2023-03-15T15:55:17.096Z,7.80
2023-03-15T15:57:53.019Z,6.58
2023-03-15T16:00:28.044Z,7.95
2023-03-15T16:03:02.286Z,7.35
2023-03-15T16:08:20.661Z,6.90
2023-03-15T16:10:53.926Z,6.75
2023-03-15T16:13:27.420Z,5.97
2023-03-15T16:16:01.270Z,6.50
2023-03-15T16:18:34.726Z,6.35
2023-03-15T16:21:12.093Z,3.87
2023-03-15T16:23:47.451Z,5.95
2023-03-15T16:26:20.855Z,5.20
2023-03-15T16:28:54.072Z,6.80
2023-03-15T16:34:19.978Z,6.58
2023-03-15T16:36:55.549Z,6.40
2023-03-15T16:39:29.114Z,5.42
2023-03-15T16:44:56.719Z,6.58
2023-03-15T16:47:31.248Z,5.53
2023-03-15T16:50:04.867Z,4.33
2023-03-15T16:52:38.279Z,5.55
2023-03-15T16:55:14.868Z,5.83
2023-03-15T16:57:52.738Z,4.33
2023-03-15T17:00:28.240Z,5.78
2023-03-15T17:03:04.639Z,4.83
2023-03-15T17:05:41.156Z,5.75
2023-03-15T17:08:20.764Z,6.85
2023-03-15T17:10:54.417Z,6.05
2023-03-15T17:13:32.067Z,5.87
2023-03-15T17:16:06.627Z,6.20
2023-03-15T17:18:39.914Z,7.95
2023-03-15T17:21:15.899Z,7.92
2023-03-15T17:23:51.005Z,6.50
2023-03-15T17:26:25.142Z,6.83
2023-03-15T17:28:59.300Z,6.92
2023-03-15T17:31:40.883Z,6.15
2023-03-15T17:34:16.706Z,6.05
2023-03-15T17:36:54.001Z,6.87
2023-03-15T17:39:28.352Z,6.22
2023-03-15T17:42:05.836Z,6.75
2023-03-15T17:44:39.112Z,7.20
2023-03-15T17:47:15.339Z,6.90
2023-03-15T17:49:51.647Z,6.97
2023-03-15T17:52:28.148Z,7.60
2023-03-15T17:55:01.326Z,8.33
2023-03-15T17:57:36.509Z,7.45
2023-03-15T18:00:13.478Z,7.42
2023-03-15T18:02:55.039Z,8.60
2023-03-15T18:05:25.137Z,9.63
2023-03-15T18:07:59.860Z,6.50
2023-03-15T18:10:39.901Z,8.73
2023-03-15T18:13:22.183Z,9.18
2023-03-15T18:15:57.173Z,7.15
2023-03-15T18:18:30.362Z,7.37
2023-03-15T18:21:03.736Z,6.70
2023-03-15T18:23:37.007Z,8.23
2023-03-15T18:26:31.759Z,6.95
2023-03-15T18:29:12.028Z,6.17
2023-03-15T18:31:45.514Z,8.30
2023-03-15T18:34:20.456Z,8.08
2023-03-15T18:36:54.266Z,7.40
2023-03-15T18:39:28.557Z,7.53
2023-03-15T18:42:01.995Z,8.28
2023-03-15T18:44:35.576Z,8.90
2023-03-15T18:47:08.867Z,7.17
2023-03-15T18:49:41.966Z,7.03
2023-03-15T18:52:18.924Z,8.05
2023-03-15T18:54:54.708Z,5.78
2023-03-15T18:57:28.006Z,6.20
2023-03-15T19:00:01.178Z,8.15
2023-03-15T19:02:34.594Z,5.70
2023-03-15T19:05:10.813Z,6.20
2023-03-15T19:07:52.096Z,6.37
2023-03-15T19:10:28.513Z,6.78
2023-03-15T19:13:04.341Z,6.62
2023-03-15T19:15:37.455Z,5.67
2023-03-15T19:18:13.050Z,7.75
2023-03-15T19:20:49.898Z,6.12
2023-03-15T19:23:23.258Z,6.30
2023-03-15T19:25:56.474Z,6.97
2023-03-15T19:28:30.440Z,5.03
2023-03-15T19:31:07.442Z,6.72
2023-03-15T19:33:40.623Z,6.43
2023-03-15T19:36:17.366Z,4.92
2023-03-15T19:39:03.745Z,6.37
2023-03-15T19:41:36.889Z,5.62
2023-03-15T19:44:10.308Z,6.50
2023-03-15T19:49:25.671Z,6.97
2023-03-15T19:51:59.075Z,6.80
2023-03-15T19:54:35.386Z,7.10
2023-03-15T19:57:08.823Z,6.28
2023-03-15T19:59:41.966Z,7.83
2023-03-15T20:02:16.169Z,5.42
2023-03-15T20:04:49.576Z,5.05
2023-03-15T20:07:25.513Z,5.45
2023-03-15T20:09:58.853Z,6.12
2023-03-15T20:12:33.268Z,5.80
2023-03-15T20:15:11.029Z,5.62
2023-03-15T20:17:48.986Z,4.62
2023-03-15T20:22:54.972Z,5.72
2023-03-15T20:25:28.239Z,5.50
2023-03-15T20:28:01.515Z,4.78
2023-03-15T20:30:34.779Z,5.17
2023-03-15T20:36:33.519Z,5.45
2023-03-15T20:39:50.037Z,5.95
2023-03-15T20:42:23.961Z,5.50
2023-03-15T20:45:38.786Z,4.95
2023-03-15T20:48:51.694Z,5.60
2023-03-15T20:51:35.641Z,4.30
2023-03-15T20:54:16.104Z,6.15
2023-03-15T20:56:49.325Z,5.15
2023-03-15T20:59:23.535Z,5.83
2023-03-15T21:01:56.685Z,5.30
2023-03-15T21:04:29.773Z,5.75
2023-03-15T21:07:04.263Z,6.55
2023-03-15T21:09:37.590Z,5.12
2023-03-15T21:12:11.435Z,5.20
2023-03-15T21:14:44.662Z,5.50
2023-03-15T21:17:17.953Z,5.50
2023-03-15T21:19:51.290Z,7.22
2023-03-15T21:22:24.392Z,6.25
2023-03-15T21:24:57.661Z,5.72
2023-03-15T21:27:33.408Z,6.80
2023-03-15T21:30:08.278Z,6.55
2023-03-15T21:32:41.753Z,5.37
2023-03-15T21:35:16.810Z,6.80
2023-03-15T21:37:53.502Z,6.60
2023-03-15T21:40:30.836Z,8.18
2023-03-15T21:43:07.215Z,6.10
2023-03-15T21:45:43.193Z,6.40
2023-03-15T21:48:18.628Z,6.65
2023-03-15T21:50:57.216Z,7.10
2023-03-15T21:53:34.700Z,7.15
2023-03-15T21:56:11.125Z,6.28
2023-03-15T21:58:46.617Z,6.12
2023-03-15T22:01:20.546Z,6.78
2023-03-15T22:03:55.695Z,6.90
2023-03-15T22:06:31.013Z,8.80
2023-03-15T22:09:04.491Z,8.70
2023-03-15T22:11:41.515Z,9.03
2023-03-15T22:14:15.307Z,8.63
2023-03-15T22:16:48.670Z,9.13
2023-03-15T22:19:23.109Z,8.78
2023-03-15T22:21:57.512Z,7.85
2023-03-15T22:24:32.919Z,8.90
2023-03-15T22:27:07.663Z,10.00
2023-03-15T22:29:45.097Z,9.08
2023-03-15T22:32:25.128Z,8.25
2023-03-15T22:37:43.671Z,9.38
2023-03-15T22:40:26.695Z,7.58
2023-03-15T22:43:01.242Z,7.70
2023-03-15T22:45:36.880Z,8.90
2023-03-15T22:48:10.429Z,8.43
2023-03-15T22:50:43.486Z,8.73
2023-03-15T22:53:16.689Z,8.18
2023-03-15T22:55:49.951Z,11.05
2023-03-15T22:58:26.039Z,11.35
2023-03-15T23:01:00.631Z,9.85
2023-03-15T23:03:35.775Z,11.65
2023-03-15T23:06:13.701Z,10.98
2023-03-15T23:08:53.465Z,12.43
2023-03-15T23:11:30.469Z,10.48
2023-03-15T23:14:04.777Z,9.50
2023-03-15T23:16:39.134Z,9.60
2023-03-15T23:19:20.673Z,10.10
2023-03-15T23:21:59.155Z,10.98
2023-03-15T23:24:38.676Z,13.03
2023-03-15T23:27:22.108Z,10.78
2023-03-15T23:30:07.572Z,14.75
2023-03-15T23:32:50.960Z,10.65
2023-03-15T23:35:29.266Z,13.30
2023-03-15T23:38:09.241Z,10.98
2023-03-15T23:40:48.866Z,12.80
2023-03-15T23:43:29.372Z,11.60
2023-03-15T23:46:15.236Z,11.85
2023-03-15T23:48:59.556Z,10.48
2023-03-15T23:51:46.842Z,11.55
